Texas Highway — JMVY — position and weather

sailwx.info

Track history (hours):
 
Tides and Currents Weather Stations Pressure Air Temp Water Temp Dewpoint Dewpoint Depression Visibility Wind Speed Wind Dir Waves Ship Positions

Texas Highway

Last reported at 2018-Apr-23 09:46 UTC. Time now 2018-Apr-26 01:44 UTC.
Position N 38°11' W 124°19'.

Length 199.9 m; beam 32.2 m.

Type: Cargo ship. MMSI: 432440000.

Date/timePositionNaut miles runAvg speedWind from/ knotsBaromVisibWave heightAir tempDewpointWater temp
2018-Apr-23 09:46N 38°11' W 124°19'614.0
2018-Apr-23 09:22N 38°11' W 124°11'513.9
2018-Apr-23 08:59N 38°11' W 124°05'714.7
2018-Apr-23 08:29N 38°11' W 123°55'714.9
2018-Apr-23 08:00N 38°11' W 123°46'613.1
2018-Apr-23 07:30N 38°11' W 123°38'612.0
2018-Apr-23 07:00N 38°11' W 123°30'713.6
2018-Apr-23 06:30N 38°10' W 123°22'713.7
2018-Apr-23 06:00N 38°05' W 123°15'714.3
2018-Apr-23 05:30N 37°59' W 123°10'815.5
2018-Apr-23 05:00N 37°55' W 123°01'815.8
2018-Apr-23 04:30N 37°51' W 122°53'815.4
2018-Apr-23 04:00N 37°48' W 122°44'510.1
2018-Apr-23 03:30N 37°46' W 122°38'815.6
2018-Apr-23 03:01N 37°49' W 122°29'510.8
2018-Apr-23 02:31N 37°54' W 122°26'713.9
2018-Apr-23 02:00N 38°01' W 122°24'713.9
2018-Apr-23 01:31N 38°04' W 122°16'612.2
2018-Apr-23 01:00N 38°02' W 122°09'1 0.1
2018-Apr-22 17:38N 38°02' W 122°08'0 0.0
2018-Apr-22 17:26N 38°02' W 122°08'0 0.0
2018-Apr-22 16:49N 38°02' W 122°08'0 0.0
2018-Apr-22 15:32N 38°02' W 122°08'0 0.0
2018-Apr-22 15:20N 38°02' W 122°08'0 0.0
2018-Apr-22 14:50N 38°02' W 122°08'0 0.0
2018-Apr-22 14:20N 38°02' W 122°08'0 0.0
2018-Apr-22 13:55N 38°02' W 122°08'0 0.0
2018-Apr-22 13:19N 38°02' W 122°08'0 0.0
2018-Apr-22 11:20N 38°02' W 122°08'0 0.1
2018-Apr-22 11:00N 38°02' W 122°08'2 3.6
2018-Apr-22 10:30N 38°03' W 122°10'611.7
2018-Apr-22 10:00N 38°03' W 122°18'713.5
2018-Apr-22 09:30N 37°60' W 122°25'612.7
2018-Apr-22 09:00N 37°53' W 122°26'4 8.9
2018-Apr-22 08:30N 37°49' W 122°26'510.4
2018-Apr-22 08:01N 37°47' W 122°33'713.3
2018-Apr-22 07:30N 37°45' W 122°40'4 8.3
2018-Apr-22 07:00N 37°41' W 122°40'4 8.4
2018-Apr-22 06:30N 37°36' W 122°40'4 8.6
2018-Apr-22 06:00N 37°32' W 122°40'5 9.3
2018-Apr-22 05:30N 37°27' W 122°40'5 9.9
2018-Apr-22 05:00N 37°22' W 122°40'5 9.7
2018-Apr-22 04:30N 37°18' W 122°40'510.0
2018-Apr-22 04:00N 37°13' W 122°40'5 9.5
2018-Apr-22 03:30N 37°08' W 122°38'5 9.9
2018-Apr-22 03:00N 37°03' W 122°36'5 9.8
2018-Apr-22 02:30N 36°59' W 122°34'4 8.3
2018-Apr-22 02:00N 36°55' W 122°32'612.4
2018-Apr-22 01:30N 36°49' W 122°28'612.4
2018-Apr-22 01:00N 36°44' W 122°26'612.4
2018-Apr-22 00:30N 36°38' W 122°23'612.1
2018-Apr-22 00:00N 36°32' W 122°20'611.9
2018-Apr-21 23:29N 36°27' W 122°17'612.5
2018-Apr-21 23:00N 36°21' W 122°14'7012.2
2018-Apr-21 17:17N 35°18' W 121°37'1613.2
2018-Apr-21 16:04N 35°05' W 121°26'213.2
2018-Apr-21 15:55N 35°03' W 121°24'513.1
2018-Apr-21 15:30N 34°59' W 121°21'712.8
2018-Apr-21 14:58N 34°53' W 121°16'612.8
2018-Apr-21 14:29N 34°48' W 121°11'612.8
2018-Apr-21 14:00N 34°43' W 121°07'612.5
2018-Apr-21 13:30N 34°38' W 121°03'611.6
2018-Apr-21 13:00N 34°33' W 120°59'611.8
2018-Apr-21 12:29N 34°28' W 120°55'611.5
2018-Apr-21 12:00N 34°25' W 120°49'612.6
2018-Apr-21 11:30N 34°24' W 120°41'612.8
2018-Apr-21 11:00N 34°22' W 120°34'713.2
2018-Apr-21 10:29N 34°20' W 120°26'713.7
2018-Apr-21 10:00N 34°19' W 120°18'813.7
2018-Apr-21 09:27N 34°17' W 120°09'714.1
2018-Apr-21 08:58N 34°15' W 120°01'613.8
2018-Apr-21 08:30N 34°13' W 119°54'713.2
2018-Apr-21 07:57N 34°11' W 119°45'713.7
2018-Apr-21 07:28N 34°09' W 119°38'714.7
2018-Apr-21 06:59N 34°07' W 119°30'813.1
2018-Apr-21 06:23N 34°05' W 119°20'4 9.2
2018-Apr-21 06:00N 34°04' W 119°16'612.3
2018-Apr-21 05:29N 34°01' W 119°10'612.8
2018-Apr-21 05:00N 33°58' W 119°03'611.6
2018-Apr-21 04:29N 33°55' W 118°57'611.6
2018-Apr-21 04:00N 33°52' W 118°51'511.1
2018-Apr-21 03:30N 33°50' W 118°45'510.9
2018-Apr-21 03:00N 33°47' W 118°39'611.3
2018-Apr-21 02:30N 33°44' W 118°34'611.4
2018-Apr-21 02:00N 33°41' W 118°28'510.9
2018-Apr-21 01:30N 33°39' W 118°22'510.6
2018-Apr-21 01:00N 33°37' W 118°16'4 8.5
2018-Apr-21 00:31N 33°40' W 118°12'4 8.6
2018-Apr-21 00:00N 33°44' W 118°12'2 4.4
2018-Apr-20 23:30N 33°46' W 118°13'0 0.3
2018-Apr-20 23:00N 33°46' W 118°13'0 0.0
2018-Apr-20 22:30N 33°46' W 118°13'0 0.0
2018-Apr-20 22:00N 33°46' W 118°13'0 0.0
2018-Apr-20 21:29N 33°46' W 118°13'0 0.0
2018-Apr-20 20:59N 33°46' W 118°13'0 0.0
2018-Apr-20 20:26N 33°46' W 118°13'0 0.0
2018-Apr-20 19:59N 33°46' W 118°13'0 0.0
2018-Apr-20 19:29N 33°46' W 118°13'0 0.0
2018-Apr-20 18:59N 33°46' W 118°13'0 0.0
2018-Apr-20 18:29N 33°46' W 118°13'0 0.1
2018-Apr-20 17:56N 33°46' W 118°13'0 0.1
2018-Apr-20 17:29N 33°46' W 118°13'0 0.0
2018-Apr-20 16:59N 33°46' W 118°13'0 0.0
2018-Apr-20 16:29N 33°46' W 118°13'0 0.0
2018-Apr-20 15:59N 33°46' W 118°13'0 0.0
2018-Apr-20 15:29N 33°46' W 118°13'0 0.0
2018-Apr-20 14:59N 33°46' W 118°13'0 0.0
2018-Apr-20 14:29N 33°46' W 118°13'0 0.0
2018-Apr-20 13:59N 33°46' W 118°13'0 0.0
2018-Apr-20 13:29N 33°46' W 118°13'0 0.0
2018-Apr-20 12:59N 33°46' W 118°13'0 0.0
2018-Apr-20 12:26N 33°46' W 118°13'0 0.1
2018-Apr-20 11:59N 33°46' W 118°13'0 0.1
2018-Apr-20 11:29N 33°46' W 118°13'0 0.0
2018-Apr-20 10:59N 33°46' W 118°13'0 0.0
2018-Apr-20 10:29N 33°46' W 118°13'0 0.0
2018-Apr-20 09:59N 33°46' W 118°13'0 0.0
2018-Apr-20 09:29N 33°46' W 118°13'0 0.0
2018-Apr-20 08:57N 33°46' W 118°13'0 0.0
2018-Apr-20 08:27N 33°46' W 118°13'0 0.5
2018-Apr-20 08:00N 33°46' W 118°13'1 2.4
2018-Apr-20 07:30N 33°45' W 118°13'4 8.2
2018-Apr-20 07:00N 33°42' W 118°11'3 6.2
2018-Apr-20 06:30N 33°38' W 118°11'2 4.5
2018-Apr-20 05:58N 33°36' W 118°12'3 5.7
2018-Apr-20 05:26N 33°36' W 118°15'3 8.1
2018-Apr-20 05:00N 33°36' W 118°19'10 8.2
2018-Apr-20 03:45N 33°36' W 118°32'2 8.6
2018-Apr-20 03:30N 33°36' W 118°34'4 8.4
2018-Apr-20 03:00N 33°36' W 118°39'4 8.3
2018-Apr-20 02:30N 33°37' W 118°44'4 8.6
2018-Apr-20 02:00N 33°37' W 118°49'4 8.7
2018-Apr-20 01:30N 33°37' W 118°55'4 9.0
2018-Apr-20 01:00N 33°38' W 118°60'5 9.1
2018-Apr-20 00:30N 33°38' W 119°05'5 9.0
2018-Apr-20 00:00N 33°38' W 119°11'5 8.7
2018-Apr-19 23:23N 33°38' W 119°17'4 9.0
2018-Apr-19 23:00N 33°38' W 119°22'714.6
2018-Apr-19 22:29N 33°38' W 119°31'714.2
2018-Apr-19 22:00N 33°38' W 119°39'714.2
2018-Apr-19 21:30N 33°38' W 119°47'814.5
2018-Apr-19 20:58N 33°37' W 119°57'714.3
2018-Apr-19 20:30N 33°37' W 120°05'914.3
2018-Apr-19 19:53N 33°38' W 120°15'514.5
2018-Apr-19 19:30N 33°38' W 120°22'714.2
2018-Apr-19 19:00N 33°38' W 120°30'714.3
2018-Apr-19 18:30N 33°38' W 120°39'714.5
2018-Apr-19 18:00N 33°38' W 120°48'714.2
2018-Apr-19 17:30N 33°38' W 120°56'714.4
2018-Apr-19 17:00N 33°38' W 121°05'714.4
2018-Apr-19 16:30N 33°38' W 121°13'814.1
2018-Apr-19 15:58N 33°38' W 121°23'  
Track history (hours):
 
Tides and Currents Weather Stations Pressure Air Temp Water Temp Dewpoint Dewpoint Depression Visibility Wind Speed Wind Dir Waves Ship Positions

Texas Highway

Last reported at 2018-Apr-23 09:46 UTC. Time now 2018-Apr-26 01:44 UTC.
Position N 38°11' W 124°19'.

Length 199.9 m; beam 32.2 m.

Type: Cargo ship. MMSI: 432440000.

Date/timePositionNaut miles runAvg speedWind from/ knotsBaromVisibWave heightAir tempDewpointWater temp
2018-Apr-23 09:46N 38°11' W 124°19'614.0
2018-Apr-23 09:22N 38°11' W 124°11'513.9
2018-Apr-23 08:59N 38°11' W 124°05'714.7
2018-Apr-23 08:29N 38°11' W 123°55'714.9
2018-Apr-23 08:00N 38°11' W 123°46'613.1
2018-Apr-23 07:30N 38°11' W 123°38'612.0
2018-Apr-23 07:00N 38°11' W 123°30'713.6
2018-Apr-23 06:30N 38°10' W 123°22'713.7
2018-Apr-23 06:00N 38°05' W 123°15'714.3
2018-Apr-23 05:30N 37°59' W 123°10'815.5
2018-Apr-23 05:00N 37°55' W 123°01'815.8
2018-Apr-23 04:30N 37°51' W 122°53'815.4
2018-Apr-23 04:00N 37°48' W 122°44'510.1
2018-Apr-23 03:30N 37°46' W 122°38'815.6
2018-Apr-23 03:01N 37°49' W 122°29'510.8
2018-Apr-23 02:31N 37°54' W 122°26'713.9
2018-Apr-23 02:00N 38°01' W 122°24'713.9
2018-Apr-23 01:31N 38°04' W 122°16'612.2
2018-Apr-23 01:00N 38°02' W 122°09'1 0.1
2018-Apr-22 17:38N 38°02' W 122°08'0 0.0
2018-Apr-22 17:26N 38°02' W 122°08'0 0.0
2018-Apr-22 16:49N 38°02' W 122°08'0 0.0
2018-Apr-22 15:32N 38°02' W 122°08'0 0.0
2018-Apr-22 15:20N 38°02' W 122°08'0 0.0
2018-Apr-22 14:50N 38°02' W 122°08'0 0.0
2018-Apr-22 14:20N 38°02' W 122°08'0 0.0
2018-Apr-22 13:55N 38°02' W 122°08'0 0.0
2018-Apr-22 13:19N 38°02' W 122°08'0 0.0
2018-Apr-22 11:20N 38°02' W 122°08'0 0.1
2018-Apr-22 11:00N 38°02' W 122°08'2 3.6
2018-Apr-22 10:30N 38°03' W 122°10'611.7
2018-Apr-22 10:00N 38°03' W 122°18'713.5
2018-Apr-22 09:30N 37°60' W 122°25'612.7
2018-Apr-22 09:00N 37°53' W 122°26'4 8.9
2018-Apr-22 08:30N 37°49' W 122°26'510.4
2018-Apr-22 08:01N 37°47' W 122°33'713.3
2018-Apr-22 07:30N 37°45' W 122°40'4 8.3
2018-Apr-22 07:00N 37°41' W 122°40'4 8.4
2018-Apr-22 06:30N 37°36' W 122°40'4 8.6
2018-Apr-22 06:00N 37°32' W 122°40'5 9.3
2018-Apr-22 05:30N 37°27' W 122°40'5 9.9
2018-Apr-22 05:00N 37°22' W 122°40'5 9.7
2018-Apr-22 04:30N 37°18' W 122°40'510.0
2018-Apr-22 04:00N 37°13' W 122°40'5 9.5
2018-Apr-22 03:30N 37°08' W 122°38'5 9.9
2018-Apr-22 03:00N 37°03' W 122°36'5 9.8
2018-Apr-22 02:30N 36°59' W 122°34'4 8.3
2018-Apr-22 02:00N 36°55' W 122°32'612.4
2018-Apr-22 01:30N 36°49' W 122°28'612.4
2018-Apr-22 01:00N 36°44' W 122°26'612.4
2018-Apr-22 00:30N 36°38' W 122°23'612.1
2018-Apr-22 00:00N 36°32' W 122°20'611.9
2018-Apr-21 23:29N 36°27' W 122°17'612.5
2018-Apr-21 23:00N 36°21' W 122°14'7012.2
2018-Apr-21 17:17N 35°18' W 121°37'1613.2
2018-Apr-21 16:04N 35°05' W 121°26'213.2
2018-Apr-21 15:55N 35°03' W 121°24'513.1
2018-Apr-21 15:30N 34°59' W 121°21'712.8
2018-Apr-21 14:58N 34°53' W 121°16'612.8
2018-Apr-21 14:29N 34°48' W 121°11'612.8
2018-Apr-21 14:00N 34°43' W 121°07'612.5
2018-Apr-21 13:30N 34°38' W 121°03'611.6
2018-Apr-21 13:00N 34°33' W 120°59'611.8
2018-Apr-21 12:29N 34°28' W 120°55'611.5
2018-Apr-21 12:00N 34°25' W 120°49'612.6
2018-Apr-21 11:30N 34°24' W 120°41'612.8
2018-Apr-21 11:00N 34°22' W 120°34'713.2
2018-Apr-21 10:29N 34°20' W 120°26'713.7
2018-Apr-21 10:00N 34°19' W 120°18'813.7
2018-Apr-21 09:27N 34°17' W 120°09'714.1
2018-Apr-21 08:58N 34°15' W 120°01'613.8
2018-Apr-21 08:30N 34°13' W 119°54'713.2
2018-Apr-21 07:57N 34°11' W 119°45'713.7
2018-Apr-21 07:28N 34°09' W 119°38'714.7
2018-Apr-21 06:59N 34°07' W 119°30'813.1
2018-Apr-21 06:23N 34°05' W 119°20'4 9.2
2018-Apr-21 06:00N 34°04' W 119°16'612.3
2018-Apr-21 05:29N 34°01' W 119°10'612.8
2018-Apr-21 05:00N 33°58' W 119°03'611.6
2018-Apr-21 04:29N 33°55' W 118°57'611.6
2018-Apr-21 04:00N 33°52' W 118°51'511.1
2018-Apr-21 03:30N 33°50' W 118°45'510.9
2018-Apr-21 03:00N 33°47' W 118°39'611.3
2018-Apr-21 02:30N 33°44' W 118°34'611.4
2018-Apr-21 02:00N 33°41' W 118°28'510.9
2018-Apr-21 01:30N 33°39' W 118°22'510.6
2018-Apr-21 01:00N 33°37' W 118°16'4 8.5
2018-Apr-21 00:31N 33°40' W 118°12'4 8.6
2018-Apr-21 00:00N 33°44' W 118°12'2 4.4
2018-Apr-20 23:30N 33°46' W 118°13'0 0.3
2018-Apr-20 23:00N 33°46' W 118°13'0 0.0
2018-Apr-20 22:30N 33°46' W 118°13'0 0.0
2018-Apr-20 22:00N 33°46' W 118°13'0 0.0
2018-Apr-20 21:29N 33°46' W 118°13'0 0.0
2018-Apr-20 20:59N 33°46' W 118°13'0 0.0
2018-Apr-20 20:26N 33°46' W 118°13'0 0.0
2018-Apr-20 19:59N 33°46' W 118°13'0 0.0
2018-Apr-20 19:29N 33°46' W 118°13'0 0.0
2018-Apr-20 18:59N 33°46' W 118°13'0 0.0
2018-Apr-20 18:29N 33°46' W 118°13'0 0.1
2018-Apr-20 17:56N 33°46' W 118°13'0 0.1
2018-Apr-20 17:29N 33°46' W 118°13'0 0.0
2018-Apr-20 16:59N 33°46' W 118°13'0 0.0
2018-Apr-20 16:29N 33°46' W 118°13'0 0.0
2018-Apr-20 15:59N 33°46' W 118°13'0 0.0
2018-Apr-20 15:29N 33°46' W 118°13'0 0.0
2018-Apr-20 14:59N 33°46' W 118°13'0 0.0
2018-Apr-20 14:29N 33°46' W 118°13'0 0.0
2018-Apr-20 13:59N 33°46' W 118°13'0 0.0
2018-Apr-20 13:29N 33°46' W 118°13'0 0.0
2018-Apr-20 12:59N 33°46' W 118°13'0 0.0
2018-Apr-20 12:26N 33°46' W 118°13'0 0.1
2018-Apr-20 11:59N 33°46' W 118°13'0 0.1
2018-Apr-20 11:29N 33°46' W 118°13'0 0.0
2018-Apr-20 10:59N 33°46' W 118°13'0 0.0
2018-Apr-20 10:29N 33°46' W 118°13'0 0.0
2018-Apr-20 09:59N 33°46' W 118°13'0 0.0
2018-Apr-20 09:29N 33°46' W 118°13'0 0.0
2018-Apr-20 08:57N 33°46' W 118°13'0 0.0
2018-Apr-20 08:27N 33°46' W 118°13'0 0.5
2018-Apr-20 08:00N 33°46' W 118°13'1 2.4
2018-Apr-20 07:30N 33°45' W 118°13'4 8.2
2018-Apr-20 07:00N 33°42' W 118°11'3 6.2
2018-Apr-20 06:30N 33°38' W 118°11'2 4.5
2018-Apr-20 05:58N 33°36' W 118°12'3 5.7
2018-Apr-20 05:26N 33°36' W 118°15'3 8.1
2018-Apr-20 05:00N 33°36' W 118°19'10 8.2
2018-Apr-20 03:45N 33°36' W 118°32'2 8.6
2018-Apr-20 03:30N 33°36' W 118°34'4 8.4
2018-Apr-20 03:00N 33°36' W 118°39'4 8.3
2018-Apr-20 02:30N 33°37' W 118°44'4 8.6
2018-Apr-20 02:00N 33°37' W 118°49'4 8.7
2018-Apr-20 01:30N 33°37' W 118°55'4 9.0
2018-Apr-20 01:00N 33°38' W 118°60'5 9.1
2018-Apr-20 00:30N 33°38' W 119°05'5 9.0
2018-Apr-20 00:00N 33°38' W 119°11'5 8.7
2018-Apr-19 23:23N 33°38' W 119°17'4 9.0
2018-Apr-19 23:00N 33°38' W 119°22'714.6
2018-Apr-19 22:29N 33°38' W 119°31'714.2
2018-Apr-19 22:00N 33°38' W 119°39'714.2
2018-Apr-19 21:30N 33°38' W 119°47'814.5
2018-Apr-19 20:58N 33°37' W 119°57'714.3
2018-Apr-19 20:30N 33°37' W 120°05'914.3
2018-Apr-19 19:53N 33°38' W 120°15'514.5
2018-Apr-19 19:30N 33°38' W 120°22'714.2
2018-Apr-19 19:00N 33°38' W 120°30'714.3
2018-Apr-19 18:30N 33°38' W 120°39'714.5
2018-Apr-19 18:00N 33°38' W 120°48'714.2
2018-Apr-19 17:30N 33°38' W 120°56'714.4
2018-Apr-19 17:00N 33°38' W 121°05'714.4
2018-Apr-19 16:30N 33°38' W 121°13'814.1
2018-Apr-19 15:58N 33°38' W 121°23'  

Dump ship's entire track history